Anatone, WA

7:24 PM PDT on August 30, 2014 (GMT -0700)
Montgomery Ridge Road | Change Station
CLOSE
Current Station
Personal Weather Station
Location: Anatone, WA
Elevation: 3300 ft
Nearby Weather Stations

Elev 3300 ft 46.12 °N, 117.01 °W | Updated 1 minute ago

Overcast
Overcast
58.0 °F
Feels Like 58.0 °F
N
11.4
Wind Variable Wind from SW
Gusts 21.0 mph

Today
High -- | Low -- °F
--% Chance of Precip.
Yesterday
High -- | Low -- °F
Precip. -- in
6:06 AM 7:30 PM
Waxing Crescent, 26% visible
Pressure 29.79 in
Visibility 10.0 miles
Clouds Scattered Clouds 8500 ft
Dew Point 48 °F
Humidity 70%
Rainfall 0.15 in
Snow Depth 0 in
UV 0 out of 12
Pollen 7.40 out of 12
Air Quality Not available.
Flu Activity Not available.
METAR KLWS 310156Z AUTO 29008KT 10SM SCT085 22/09 A2981 RMK AO2 PK WND 28030/0101 SLP088 T02220094

More Conditions Fewer Conditions

Pressure 29.79 in
Visibility 10.0 miles
Clouds Scattered Clouds 8500 ft
Dew Point 48 °F
Humidity 70%
Rainfall 0.15 in
Snow Depth 0 in
UV 0 out of 12
Pollen 7.40 out of 12
Air Quality Not available.
Flu Activity Not available.
METAR KLWS 310156Z AUTO 29008KT 10SM SCT085 22/09 A2981 RMK AO2 PK WND 28030/0101 SLP088 T02220094

More Conditions Fewer Conditions

10-Day Weather Forecast

Almanac

Astronomy

Aug. 30, 2014 Rise Set
Actual Time 6:06 AM PDT 7:30 PM PDT
Civil Twilight 5:35 AM PDT 8:01 PM PDT
Nautical Twilight 4:57 AM PDT 8:38 PM PDT
Astronomical Twilight 4:17 AM PDT 9:19 PM PDT
Moon 11:16 AM PDT (8/30) 9:48 PM PDT (8/30)
Length of Visible Light 14h 26m
Length of Day
13h 23m
Tomorrow will be 3m 7s shorter.
Waxing Crescent, 26% of the Moon is Illuminated
Today
Waxing Crescent
Sep 2
First Quarter
Sep 8
Full
Sep 15
Last Quarter
Sep 24
New

Today's Extremes

State Highs State Lows

Community

WunderPhotos

Upload Photos

1,748,749 photos uploaded!

Nearby

Snow Depth

Station Depth Elevation
Sourdough Gulch 0 in 4000 ft
Spruce Springs 0 in 5700 ft
Touchet 0 in 5530 ft
Quartz Peak 1 in 4700 ft
Trough 0 in 5300 ft

Earthquake Activity

City Distance Mag. Time & Date
No recent earthquake activity has been reported nearby.
Minimum magnitude displayed is 2.5.

Coastal Water Temperatures

Place Temperature
No Stations Reporting

Nearby Weather Stations